Time;durP1;ratioP1;P1;durP2;ratioP2;P2;SDS_P1;SDS_P2;PMS_P1;PMS_P2;Temp;Humidity;BMP_temperature;BMP_pressure;BME280_temperature;BME280_humidity;BME280_pressure;Samples;Min_cycle;Max_cycle;Signal;HPM_P1;HPM_P2
2023/03/27 00:01:15;;;;;;;11.32;1.80;;;2.80;99.90;;;;;;7283261;32;20133;-54
2023/03/27 00:05:19;;;;;;;10.45;1.30;;;2.90;99.90;;;;;;7279074;32;20909;-54
2023/03/27 00:09:20;;;;;;;7.57;1.55;;;2.90;99.90;;;;;;7275628;32;20108;-54
2023/03/27 00:13:23;;;;;;;14.05;1.65;;;2.80;99.90;;;;;;7287777;32;20096;-54
2023/03/27 00:17:24;;;;;;;10.65;1.48;;;2.80;99.90;;;;;;7267142;32;20122;-54
2023/03/27 00:21:27;;;;;;;9.65;1.12;;;2.80;99.90;;;;;;7283076;32;20570;-55
2023/03/27 00:25:29;;;;;;;12.60;1.50;;;2.80;99.90;;;;;;7277028;32;20199;-54
2023/03/27 00:29:30;;;;;;;15.20;1.50;;;2.80;99.90;;;;;;7282065;32;20153;-54
2023/03/27 00:33:32;;;;;;;8.35;1.52;;;2.70;99.90;;;;;;7274218;32;20099;-54
2023/03/27 00:37:35;;;;;;;11.20;1.15;;;2.70;99.90;;;;;;7281145;32;20408;-54
2023/03/27 00:41:37;;;;;;;12.32;1.45;;;2.60;99.90;;;;;;7275040;32;20179;-54
2023/03/27 00:45:38;;;;;;;11.23;1.45;;;2.70;99.90;;;;;;7277620;32;20535;-55
2023/03/27 00:49:40;;;;;;;10.70;1.40;;;2.60;99.90;;;;;;7282372;32;20104;-54
2023/03/27 00:53:42;;;;;;;12.73;1.77;;;2.60;99.90;;;;;;7278774;32;20112;-54
2023/03/27 00:57:50;;;;;;;11.65;1.83;;;2.60;99.90;;;;;;7275399;32;20130;-54
2023/03/27 01:01:52;;;;;;;10.70;1.37;;;2.60;99.90;;;;;;7275740;32;20134;-54
2023/03/27 01:05:56;;;;;;;12.05;1.33;;;2.60;99.90;;;;;;7275508;32;20100;-55
2023/03/27 01:09:58;;;;;;;6.80;1.02;;;2.50;99.90;;;;;;7277748;32;20104;-54
2023/03/27 01:14:10;;;;;;;8.90;1.20;;;2.50;99.90;;;;;;7275855;32;20153;-54
2023/03/27 01:18:27;;;;;;;8.30;1.52;;;2.50;99.90;;;;;;7277138;32;20092;-54
2023/03/27 01:22:35;;;;;;;8.13;1.50;;;2.40;99.90;;;;;;7278940;32;20509;-54
2023/03/27 01:26:58;;;;;;;14.02;1.85;;;2.40;99.90;;;;;;7279827;32;20648;-54
2023/03/27 01:31:26;;;;;;;10.80;1.90;;;2.40;99.90;;;;;;7275171;32;20567;-54
2023/03/27 01:36:03;;;;;;;12.37;1.48;;;2.20;99.90;;;;;;7267605;32;20100;-54
2023/03/27 01:40:11;;;;;;;13.43;1.80;;;2.20;99.90;;;;;;7280378;32;20200;-54
2023/03/27 01:44:30;;;;;;;8.85;2.37;;;2.20;99.90;;;;;;7276677;32;20107;-55
2023/03/27 01:48:57;;;;;;;8.05;1.58;;;2.20;99.90;;;;;;7274084;32;20758;-54
2023/03/27 01:53:12;;;;;;;12.95;2.15;;;2.20;99.90;;;;;;7281620;32;20183;-54
2023/03/27 01:57:22;;;;;;;10.15;1.70;;;2.20;99.90;;;;;;7279638;32;20607;-55
2023/03/27 02:01:29;;;;;;;7.85;1.40;;;2.20;99.90;;;;;;7283769;32;20285;-54
2023/03/27 02:05:41;;;;;;;8.38;1.60;;;2.20;99.90;;;;;;7284503;32;20565;-54
2023/03/27 02:09:51;;;;;;;8.80;1.80;;;2.10;99.90;;;;;;7279713;32;20100;-54
2023/03/27 02:14:18;;;;;;;10.27;1.60;;;2.00;99.90;;;;;;7285409;32;20122;-54
2023/03/27 02:18:28;;;;;;;8.93;1.77;;;1.90;99.90;;;;;;7284028;32;20128;-55
2023/03/27 02:22:30;;;;;;;14.77;1.80;;;1.90;99.90;;;;;;7286023;32;20111;-54
2023/03/27 02:26:40;;;;;;;7.12;1.50;;;1.80;99.90;;;;;;7283247;32;20150;-54
2023/03/27 02:31:05;;;;;;;3.25;1.10;;;1.90;99.90;;;;;;7286137;32;20108;-54
2023/03/27 02:35:27;;;;;;;8.88;1.87;;;1.80;99.90;;;;;;7281577;32;20469;-54
2023/03/27 02:39:48;;;;;;;7.37;1.30;;;1.70;99.90;;;;;;7277618;32;20096;-54
2023/03/27 02:43:56;;;;;;;7.70;1.70;;;1.60;99.90;;;;;;7284206;32;20179;-54
2023/03/27 02:48:17;;;;;;;9.23;1.87;;;1.50;99.90;;;;;;7268373;32;20100;-54
2023/03/27 02:52:27;;;;;;;7.82;1.58;;;1.50;99.90;;;;;;7275565;32;20199;-54
2023/03/27 02:56:31;;;;;;;6.80;1.33;;;1.40;99.90;;;;;;7271996;32;20182;-55
2023/03/27 03:00:39;;;;;;;9.02;1.42;;;1.30;99.90;;;;;;7284982;32;20101;-54
2023/03/27 03:04:55;;;;;;;6.05;1.37;;;1.30;99.90;;;;;;7279819;32;20100;-54
2023/03/27 03:09:00;;;;;;;9.45;1.65;;;1.20;99.90;;;;;;7282203;32;20244;-54
2023/03/27 03:13:02;;;;;;;8.18;1.37;;;1.10;99.90;;;;;;7282146;32;20136;-54
2023/03/27 03:17:04;;;;;;;9.90;1.65;;;1.10;99.90;;;;;;7282273;32;20222;-54
2023/03/27 03:21:07;;;;;;;7.22;1.25;;;1.00;99.90;;;;;;7278903;32;20208;-54
2023/03/27 03:25:12;;;;;;;5.65;1.10;;;0.90;99.90;;;;;;7279993;32;20142;-54
2023/03/27 03:29:13;;;;;;;6.90;1.33;;;0.90;99.90;;;;;;7287718;32;20152;-55
2023/03/27 03:33:17;;;;;;;6.25;1.40;;;0.80;99.90;;;;;;7288588;32;20145;-54
2023/03/27 03:37:19;;;;;;;4.90;1.00;;;0.80;99.90;;;;;;7280209;32;20166;-54
2023/03/27 03:41:20;;;;;;;7.90;1.30;;;0.60;99.90;;;;;;7283565;32;20194;-54
2023/03/27 03:45:23;;;;;;;6.68;1.02;;;0.50;99.90;;;;;;7278176;32;20293;-54
2023/03/27 03:49:25;;;;;;;5.40;0.98;;;0.50;99.90;;;;;;7278850;32;20096;-54
2023/03/27 03:53:26;;;;;;;12.77;1.60;;;0.50;99.90;;;;;;7278409;32;20127;-54
2023/03/27 03:57:28;;;;;;;12.73;4.60;;;0.50;99.90;;;;;;7278452;32;20219;-55
2023/03/27 04:01:30;;;;;;;13.85;4.80;;;0.40;99.90;;;;;;7278808;32;20302;-54
2023/03/27 04:05:33;;;;;;;14.13;6.87;;;0.30;99.90;;;;;;7279084;32;20886;-54
2023/03/27 04:09:34;;;;;;;19.62;7.57;;;0.30;99.90;;;;;;7281589;32;20148;-55
2023/03/27 04:13:36;;;;;;;16.08;6.53;;;0.30;99.90;;;;;;7278934;32;20549;-54
2023/03/27 04:17:38;;;;;;;12.27;3.58;;;0.30;99.90;;;;;;7274715;32;20122;-54
2023/03/27 04:21:41;;;;;;;13.10;2.37;;;0.20;99.90;;;;;;7276901;32;20187;-54
2023/03/27 04:25:47;;;;;;;10.98;2.40;;;0.20;99.90;;;;;;7274511;32;20192;-55
2023/03/27 04:29:48;;;;;;;9.77;2.50;;;0.20;99.90;;;;;;7268408;32;20104;-53
2023/03/27 04:33:51;;;;;;;9.95;2.15;;;0.20;99.90;;;;;;7281682;32;20126;-54
2023/03/27 04:37:53;;;;;;;10.23;1.87;;;0.30;99.90;;;;;;7285345;32;20179;-54
2023/03/27 04:41:57;;;;;;;11.85;1.85;;;0.30;99.90;;;;;;7272198;32;20186;-54
2023/03/27 04:45:58;;;;;;;6.05;1.95;;;0.40;99.90;;;;;;7278065;32;20123;-54
2023/03/27 04:50:00;;;;;;;10.07;1.77;;;0.40;99.90;;;;;;7279036;32;20484;-54
2023/03/27 04:54:06;;;;;;;7.60;1.85;;;0.50;99.90;;;;;;7279577;32;20107;-54
2023/03/27 04:58:07;;;;;;;8.48;1.95;;;0.50;99.90;;;;;;7275832;32;20199;-55
2023/03/27 05:02:11;;;;;;;4.70;1.90;;;0.60;99.90;;;;;;7278163;32;20588;-54
2023/03/27 05:06:14;;;;;;;9.65;3.35;;;0.60;99.90;;;;;;7275206;32;20104;-55
2023/03/27 05:10:16;;;;;;;16.65;3.55;;;0.80;99.90;;;;;;7276373;32;20307;-55
2023/03/27 05:14:22;;;;;;;10.85;3.03;;;0.80;99.90;;;;;;7277567;32;20516;-55
2023/03/27 05:18:25;;;;;;;7.35;2.80;;;0.70;99.90;;;;;;7280506;32;20253;-55
2023/03/27 05:22:26;;;;;;;11.35;3.05;;;0.80;99.90;;;;;;7276539;32;20199;-56
2023/03/27 05:26:28;;;;;;;12.30;2.60;;;0.80;99.90;;;;;;7286292;32;20607;-56
2023/03/27 05:30:30;;;;;;;21.12;6.85;;;0.90;99.90;;;;;;7287177;32;20400;-56
2023/03/27 05:34:33;;;;;;;10.43;2.87;;;1.00;99.90;;;;;;7282420;32;20112;-56
2023/03/27 05:38:35;;;;;;;10.88;2.53;;;1.00;99.90;;;;;;7278761;32;20585;-56
2023/03/27 05:42:41;;;;;;;18.30;6.65;;;1.10;99.90;;;;;;7277650;32;20184;-56
2023/03/27 05:46:43;;;;;;;9.65;2.20;;;1.20;99.90;;;;;;7279718;32;20100;-56
2023/03/27 05:50:45;;;;;;;8.18;2.10;;;1.30;99.90;;;;;;7278501;32;20557;-56
2023/03/27 05:54:46;;;;;;;7.53;2.12;;;1.40;99.90;;;;;;7280687;32;20119;-56
2023/03/27 05:58:48;;;;;;;11.52;3.17;;;1.50;99.90;;;;;;7276669;32;20221;-56
2023/03/27 06:02:56;;;;;;;8.68;3.15;;;1.50;99.90;;;;;;7282401;32;20133;-56
2023/03/27 06:07:01;;;;;;;12.98;2.50;;;1.60;99.90;;;;;;7290066;32;20632;-56
2023/03/27 06:11:14;;;;;;;4.80;2.00;;;1.80;99.90;;;;;;7276144;32;20136;-55
2023/03/27 06:15:15;;;;;;;13.68;1.87;;;2.10;99.90;;;;;;7279804;32;20170;-56
2023/03/27 06:19:17;;;;;;;8.32;1.70;;;2.30;99.90;;;;;;7275300;32;20204;-55
2023/03/27 06:23:19;;;;;;;13.88;2.03;;;2.30;99.90;;;;;;7281717;32;20151;-55
2023/03/27 06:27:20;;;;;;;14.25;2.10;;;2.50;99.90;;;;;;7287840;32;20249;-55
2023/03/27 06:31:23;;;;;;;5.97;1.52;;;2.60;99.90;;;;;;7281329;32;20128;-55
2023/03/27 06:35:27;;;;;;;8.65;1.87;;;2.60;99.90;;;;;;7282037;32;20273;-56
2023/03/27 06:39:29;;;;;;;6.20;1.30;;;2.70;99.90;;;;;;7279632;32;20100;-55
2023/03/27 06:43:31;;;;;;;6.20;1.30;;;2.70;99.90;;;;;;7283593;32;20157;-55
2023/03/27 06:47:34;;;;;;;6.30;1.60;;;2.70;99.90;;;;;;7281350;32;20100;-56
2023/03/27 06:51:48;;;;;;;6.80;1.25;;;2.80;99.90;;;;;;7277389;32;20127;-56
2023/03/27 06:55:50;;;;;;;8.13;1.40;;;2.80;99.90;;;;;;7282498;32;20093;-56
2023/03/27 06:59:52;;;;;;;6.45;1.33;;;2.80;99.90;;;;;;7275064;32;20213;-55
2023/03/27 07:03:54;;;;;;;6.30;1.17;;;2.80;99.90;;;;;;7277048;32;20135;-55
2023/03/27 07:07:55;;;;;;;11.27;1.37;;;2.80;99.90;;;;;;7285192;32;20132;-57
2023/03/27 07:11:58;;;;;;;7.93;1.37;;;2.90;99.90;;;;;;7285188;32;20183;-56
2023/03/27 07:15:59;;;;;;;4.72;1.30;;;3.00;99.90;;;;;;7288038;32;20139;-56
2023/03/27 07:20:02;;;;;;;4.90;1.10;;;3.10;99.90;;;;;;7293209;32;20175;-56
2023/03/27 07:24:04;;;;;;;3.62;1.50;;;3.10;99.90;;;;;;7293270;32;20181;-56
2023/03/27 07:28:09;;;;;;;3.10;1.00;;;3.20;99.90;;;;;;7282492;32;20257;-56
2023/03/27 07:32:11;;;;;;;6.82;1.25;;;3.30;99.90;;;;;;7289087;32;20120;-57
2023/03/27 07:36:17;;;;;;;4.32;1.00;;;3.30;99.90;;;;;;7280857;32;20141;-56
2023/03/27 07:40:21;;;;;;;5.40;0.93;;;3.50;99.90;;;;;;7286168;32;20211;-56
2023/03/27 07:44:37;;;;;;;4.18;0.65;;;3.70;99.90;;;;;;7279494;32;20206;-55
2023/03/27 07:48:40;;;;;;;6.32;0.85;;;3.90;99.90;;;;;;7281085;32;20259;-55
2023/03/27 07:52:43;;;;;;;6.65;0.80;;;3.90;99.90;;;;;;7283258;32;20179;-56
2023/03/27 07:56:45;;;;;;;4.15;0.60;;;4.10;99.90;;;;;;7281263;32;20104;-56
2023/03/27 08:00:51;;;;;;;6.12;0.68;;;4.20;99.90;;;;;;7280438;32;20597;-56
2023/03/27 08:04:53;;;;;;;4.37;0.90;;;4.40;99.90;;;;;;7278701;32;20108;-56
2023/03/27 08:08:55;;;;;;;4.32;0.90;;;4.50;99.90;;;;;;7277791;32;20122;-56
2023/03/27 08:12:57;;;;;;;7.97;0.80;;;4.90;99.90;;;;;;7280389;32;20542;-56
2023/03/27 08:16:59;;;;;;;5.25;0.77;;;5.10;99.90;;;;;;7283773;32;20118;-55
2023/03/27 08:21:16;;;;;;;9.97;0.80;;;5.20;99.90;;;;;;7285300;32;20118;-57
2023/03/27 08:25:18;;;;;;;8.90;1.35;;;5.30;99.90;;;;;;7284003;32;20245;-57
2023/03/27 08:29:20;;;;;;;6.22;1.08;;;5.50;99.90;;;;;;7279847;32;20182;-56
2023/03/27 08:33:22;;;;;;;5.78;0.82;;;5.60;99.90;;;;;;7278741;32;20269;-56
2023/03/27 08:37:24;;;;;;;4.07;0.88;;;5.60;99.90;;;;;;7275477;32;20330;-56
2023/03/27 08:41:37;;;;;;;5.35;0.95;;;5.60;99.90;;;;;;7277044;32;20122;-56
2023/03/27 08:45:58;;;;;;;6.72;0.73;;;5.50;99.90;;;;;;7275056;32;20249;-55
2023/03/27 08:50:04;;;;;;;4.45;0.90;;;5.90;99.90;;;;;;7269834;32;20248;-57
2023/03/27 08:54:18;;;;;;;7.37;1.05;;;6.00;99.90;;;;;;7279606;32;20125;-56
2023/03/27 08:58:20;;;;;;;10.70;1.00;;;6.30;99.90;;;;;;7275561;32;20245;-56
2023/03/27 09:02:47;;;;;;;7.05;1.02;;;6.40;99.90;;;;;;7275692;32;20603;-57
2023/03/27 09:06:58;;;;;;;6.72;1.30;;;6.60;99.90;;;;;;7280120;32;20162;-56
2023/03/27 09:11:17;;;;;;;8.88;1.15;;;7.00;99.90;;;;;;7273157;32;20104;-57
2023/03/27 09:15:31;;;;;;;12.60;1.42;;;7.50;99.90;;;;;;7274954;32;20100;-57
2023/03/27 09:19:48;;;;;;;7.72;1.55;;;7.30;99.90;;;;;;7272096;32;20219;-57
2023/03/27 09:23:54;;;;;;;10.90;1.20;;;7.00;99.90;;;;;;7271741;32;20131;-57
2023/03/27 09:27:57;;;;;;;6.97;1.10;;;6.80;99.90;;;;;;7272078;32;20238;-57
2023/03/27 09:31:58;;;;;;;6.82;1.60;;;6.80;99.90;;;;;;7274531;32;20686;-58
2023/03/27 09:36:00;;;;;;;5.97;1.35;;;6.60;99.90;;;;;;7274878;32;20617;-57
2023/03/27 09:40:06;;;;;;;5.10;1.30;;;6.30;99.90;;;;;;7269350;32;20112;-57
2023/03/27 09:44:14;;;;;;;9.85;1.73;;;5.70;99.90;;;;;;7271752;32;20164;-57
2023/03/27 09:48:52;;;;;;;8.23;1.48;;;4.60;99.90;;;;;;7269918;32;20276;-57
2023/03/27 09:53:13;;;;;;;7.47;1.20;;;4.40;99.90;;;;;;7274532;32;20214;-56
2023/03/27 09:57:14;;;;;;;5.40;1.25;;;6.70;99.90;;;;;;7267425;32;20113;-55
2023/03/27 10:01:33;;;;;;;7.62;1.48;;;8.50;99.90;;;;;;7271748;32;20211;-55
2023/03/27 10:05:35;;;;;;;6.95;1.00;;;8.50;99.90;;;;;;7275570;32;20149;-55
2023/03/27 10:09:39;;;;;;;4.25;1.30;;;8.30;99.90;;;;;;7273111;32;20100;-55
2023/03/27 10:13:49;;;;;;;4.18;0.85;;;7.20;99.90;;;;;;7280413;32;20199;-55
2023/03/27 10:17:51;;;;;;;3.75;0.85;;;8.80;99.90;;;;;;7276681;32;20104;-55
2023/03/27 10:21:55;;;;;;;2.33;0.80;;;10.70;99.90;;;;;;7275682;32;20313;-55
2023/03/27 10:26:00;;;;;;;3.62;0.90;;;12.60;99.90;;;;;;7278716;32;20168;-55
2023/03/27 10:30:22;;;;;;;9.40;1.00;;;12.00;99.90;;;;;;7276309;32;20162;-56
2023/03/27 10:34:36;;;;;;;5.53;0.95;;;10.60;99.90;;;;;;7277482;32;20179;-56
2023/03/27 10:38:41;;;;;;;5.22;0.98;;;9.00;99.90;;;;;;7282559;32;20194;-56
2023/03/27 10:42:43;;;;;;;2.60;0.88;;;7.20;99.90;;;;;;7277691;32;20663;-55
2023/03/27 10:46:45;;;;;;;5.28;1.30;;;5.20;99.90;;;;;;7281977;32;20525;-56
2023/03/27 10:50:53;;;;;;;3.70;1.02;;;4.10;99.90;;;;;;7272563;32;20186;-55
2023/03/27 10:55:22;;;;;;;5.53;1.25;;;4.20;99.90;;;;;;7287055;32;20730;-55
2023/03/27 10:59:28;;;;;;;6.22;1.67;;;4.60;99.90;;;;;;7280506;32;20190;-56
2023/03/27 11:03:56;;;;;;;3.50;0.70;;;6.50;99.90;;;;;;7279852;32;20304;-56
2023/03/27 11:08:13;;;;;;;5.40;0.98;;;9.00;99.90;;;;;;7278000;32;20278;-56
2023/03/27 11:12:17;;;;;;;4.25;0.80;;;11.30;99.90;;;;;;7281897;32;20232;-56
2023/03/27 11:16:32;;;;;;;6.03;1.17;;;13.50;99.90;;;;;;7281830;32;21167;-57
2023/03/27 11:20:46;;;;;;;3.90;0.90;;;14.30;99.90;;;;;;7275946;32;20443;-56
2023/03/27 11:24:59;;;;;;;4.78;0.75;;;13.80;99.90;;;;;;7274714;32;20126;-56
2023/03/27 11:29:21;;;;;;;7.72;1.87;;;10.80;99.90;;;;;;7274728;32;20601;-55
2023/03/27 11:33:44;;;;;;;2.20;0.85;;;8.30;99.90;;;;;;7274381;32;20106;-56
2023/03/27 11:37:52;;;;;;;1.27;0.65;;;8.10;99.90;;;;;;7280381;32;20241;-56
2023/03/27 11:42:00;;;;;;;1.85;0.40;;;8.70;99.90;;;;;;7271957;32;20119;-56
2023/03/27 11:46:19;;;;;;;3.90;0.70;;;10.00;99.90;;;;;;7269720;32;20138;-56
2023/03/27 11:50:30;;;;;;;1.95;0.57;;;11.60;99.90;;;;;;7279615;32;20340;-56
2023/03/27 11:54:47;;;;;;;2.78;1.00;;;12.20;99.90;;;;;;7273412;32;20146;-56
2023/03/27 11:58:49;;;;;;;1.25;0.60;;;13.00;99.90;;;;;;7272112;32;20539;-56
2023/03/27 12:03:08;;;;;;;2.03;0.70;;;14.50;99.90;;;;;;7277211;32;20147;-56
2023/03/27 12:07:21;;;;;;;5.70;1.65;;;15.40;99.90;;;;;;7262152;32;20814;-56
2023/03/27 12:11:46;;;;;;;2.58;1.10;;;16.60;97.40;;;;;;7271092;32;20153;-56
2023/03/27 12:15:57;;;;;;;2.78;0.80;;;15.90;94.50;;;;;;7277926;32;20127;-56
2023/03/27 12:20:19;;;;;;;3.37;0.70;;;14.10;95.00;;;;;;7275124;32;20274;-56
2023/03/27 12:24:27;;;;;;;4.75;0.55;;;10.90;99.90;;;;;;7269927;32;20317;-55
2023/03/27 12:29:00;;;;;;;3.00;0.37;;;8.40;99.90;;;;;;7275287;32;20203;-55
2023/03/27 12:33:23;;;;;;;2.70;0.55;;;7.50;99.90;;;;;;7271397;32;20130;-55
2023/03/27 12:37:59;;;;;;;6.95;1.02;;;7.30;99.90;;;;;;7272598;32;20124;-57
2023/03/27 12:42:12;;;;;;;1.48;0.50;;;6.70;99.90;;;;;;7236643;32;20126;-56
2023/03/27 12:46:23;;;;;;;2.03;0.60;;;6.30;99.90;;;;;;7272667;32;20112;-56
2023/03/27 12:50:30;;;;;;;2.00;0.20;;;6.10;99.90;;;;;;7273562;32;20161;-56
2023/03/27 12:54:35;;;;;;;1.42;0.25;;;6.80;99.90;;;;;;7273233;32;20111;-56
2023/03/27 12:58:38;;;;;;;1.00;0.40;;;8.90;99.90;;;;;;7277928;32;20108;-56
2023/03/27 13:02:40;;;;;;;2.92;0.40;;;11.60;99.90;;;;;;7261013;32;20879;-57
2023/03/27 13:07:03;;;;;;;2.47;0.40;;;12.40;99.90;;;;;;7285596;32;20112;-57
2023/03/27 13:11:23;;;;;;;3.25;0.70;;;13.50;97.90;;;;;;7282374;32;20100;-57
2023/03/27 13:16:04;;;;;;;1.92;0.50;;;13.20;95.00;;;;;;7275765;32;20193;-56
2023/03/27 13:20:27;;;;;;;3.22;0.60;;;13.60;92.60;;;;;;7271199;32;20695;-57
2023/03/27 13:24:44;;;;;;;2.00;0.50;;;12.90;92.10;;;;;;7274376;32;20250;-57
2023/03/27 13:28:51;;;;;;;4.43;0.80;;;12.80;94.80;;;;;;7278705;32;20561;-57
2023/03/27 13:33:15;;;;;;;4.00;0.60;;;12.40;96.50;;;;;;7273619;32;20114;-56
2023/03/27 13:37:16;;;;;;;5.03;0.70;;;9.80;99.90;;;;;;7266941;32;20527;-56
2023/03/27 13:41:43;;;;;;;2.70;0.37;;;7.70;99.90;;;;;;7282413;32;20129;-56
2023/03/27 13:45:56;;;;;;;3.83;0.65;;;6.80;99.90;;;;;;7279272;32;20701;-56
2023/03/27 13:50:17;;;;;;;2.35;0.85;;;6.80;99.90;;;;;;7282682;32;20124;-56
2023/03/27 13:54:45;;;;;;;3.70;0.77;;;7.20;99.90;;;;;;7284643;32;20131;-56
2023/03/27 13:59:17;;;;;;;2.22;0.50;;;7.70;99.90;;;;;;7281947;32;20100;-56
2023/03/27 14:04:00;;;;;;;3.22;0.60;;;7.70;99.90;;;;;;7284226;32;20115;-56
2023/03/27 14:08:52;;;;;;;1.62;0.50;;;8.60;99.90;;;;;;7260250;32;20195;-56
2023/03/27 14:13:18;;;;;;;5.45;0.77;;;8.50;99.90;;;;;;7229786;32;20614;-56
2023/03/27 14:17:49;;;;;;;3.95;0.98;;;7.90;99.90;;;;;;7266251;32;20290;-57
2023/03/27 14:22:01;;;;;;;4.43;1.00;;;8.40;99.90;;;;;;7260659;32;20278;-55
2023/03/27 14:26:13;;;;;;;3.17;0.57;;;9.60;99.90;;;;;;7260914;32;20195;-55
2023/03/27 14:30:19;;;;;;;2.65;0.50;;;9.20;99.90;;;;;;7261754;32;20208;-56
2023/03/27 14:34:23;;;;;;;4.82;1.08;;;8.20;99.90;;;;;;7265686;32;20119;-56
2023/03/27 14:38:32;;;;;;;3.25;0.75;;;7.50;99.90;;;;;;7267262;32;20108;-58
2023/03/27 14:42:34;;;;;;;2.72;0.60;;;6.30;99.90;;;;;;7259545;32;20144;-56
2023/03/27 14:46:36;;;;;;;4.55;0.50;;;5.90;99.90;;;;;;7261480;32;20103;-56
2023/03/27 14:50:38;;;;;;;3.33;0.70;;;6.30;99.90;;;;;;7251606;32;20166;-56
2023/03/27 14:54:40;;;;;;;3.42;0.60;;;6.70;99.90;;;;;;7261026;32;20684;-56
2023/03/27 14:58:59;;;;;;;3.15;1.35;;;6.90;99.90;;;;;;7248984;32;20171;-57
2023/03/27 15:03:14;;;;;;;4.28;0.70;;;7.10;99.90;;;;;;7249587;32;20171;-56
2023/03/27 15:07:19;;;;;;;1.77;0.73;;;7.10;99.90;;;;;;7276845;32;20142;-56
2023/03/27 15:11:24;;;;;;;3.67;1.00;;;7.50;99.90;;;;;;7280972;32;20115;-56
2023/03/27 15:15:41;;;;;;;4.45;1.30;;;7.80;99.90;;;;;;7284359;32;20203;-57
2023/03/27 15:20:09;;;;;;;6.85;1.10;;;7.90;99.90;;;;;;7285240;32;20135;-57
2023/03/27 15:24:29;;;;;;;4.40;0.62;;;8.30;99.90;;;;;;7284131;32;20203;-56
2023/03/27 15:29:00;;;;;;;3.28;0.62;;;8.20;99.90;;;;;;7277682;32;20228;-56
2023/03/27 15:33:05;;;;;;;4.50;0.70;;;7.70;99.90;;;;;;7279421;32;20731;-56
2023/03/27 15:37:18;;;;;;;3.72;0.70;;;7.50;99.90;;;;;;7282675;32;20109;-56
2023/03/27 15:41:31;;;;;;;3.95;0.90;;;7.60;99.90;;;;;;7280417;32;20620;-56
2023/03/27 15:45:38;;;;;;;2.42;0.50;;;7.30;99.90;;;;;;7276969;32;20212;-56
2023/03/27 15:49:42;;;;;;;2.80;0.65;;;7.00;99.90;;;;;;7278775;32;20220;-57
2023/03/27 15:53:46;;;;;;;2.72;0.57;;;6.70;99.90;;;;;;7275844;32;20138;-56
2023/03/27 15:57:48;;;;;;;2.03;0.43;;;6.70;99.90;;;;;;7271846;32;20127;-56
2023/03/27 16:02:00;;;;;;;2.53;0.65;;;6.60;99.90;;;;;;7284216;32;20139;-56
2023/03/27 16:06:03;;;;;;;4.93;0.70;;;6.80;99.90;;;;;;7277392;32;20187;-56
2023/03/27 16:10:06;;;;;;;5.93;0.50;;;7.00;99.90;;;;;;7280315;32;20117;-57
2023/03/27 16:14:21;;;;;;;2.62;0.60;;;7.00;99.90;;;;;;7283797;32;20717;-56
2023/03/27 16:18:31;;;;;;;4.30;0.82;;;7.00;99.90;;;;;;7277460;32;20115;-56
2023/03/27 16:22:36;;;;;;;2.78;0.75;;;6.90;99.90;;;;;;7281138;32;20264;-56
2023/03/27 16:26:37;;;;;;;3.60;0.55;;;6.80;99.90;;;;;;7284597;32;20112;-56
2023/03/27 16:30:40;;;;;;;4.28;0.70;;;6.60;99.90;;;;;;7274673;32;20136;-56
2023/03/27 16:34:43;;;;;;;3.83;0.95;;;6.70;99.90;;;;;;7278378;32;20130;-57
2023/03/27 16:38:45;;;;;;;4.90;1.00;;;6.70;99.90;;;;;;7273414;32;20107;-56
2023/03/27 16:42:47;;;;;;;5.65;1.20;;;6.70;99.90;;;;;;7273882;32;20135;-56
2023/03/27 16:46:49;;;;;;;3.78;1.10;;;6.70;99.90;;;;;;7280177;32;20105;-57
2023/03/27 16:50:51;;;;;;;5.35;1.12;;;6.40;99.90;;;;;;7278976;32;20272;-57
2023/03/27 16:54:53;;;;;;;6.20;0.80;;;6.10;99.90;;;;;;7276941;32;20131;-57
2023/03/27 16:58:54;;;;;;;3.60;0.60;;;6.00;99.90;;;;;;7282989;32;20218;-57
2023/03/27 17:02:56;;;;;;;3.83;0.77;;;5.70;99.90;;;;;;7275999;32;20577;-57
2023/03/27 17:06:58;;;;;;;5.68;1.17;;;5.60;99.90;;;;;;7285271;32;20134;-58
2023/03/27 17:11:02;;;;;;;10.15;1.73;;;5.70;99.90;;;;;;7283990;32;20428;-58
2023/03/27 17:15:05;;;;;;;8.05;1.30;;;5.70;99.90;;;;;;7282865;32;20143;-58
2023/03/27 17:19:07;;;;;;;10.02;1.25;;;5.70;99.90;;;;;;7280741;32;20134;-58
2023/03/27 17:23:10;;;;;;;3.20;0.70;;;5.50;99.90;;;;;;7291264;32;20202;-57
2023/03/27 17:27:12;;;;;;;3.37;0.50;;;5.60;99.90;;;;;;7288594;32;20681;-58
2023/03/27 17:31:14;;;;;;;2.10;0.55;;;5.40;99.90;;;;;;7293517;32;20191;-58
2023/03/27 17:35:16;;;;;;;3.80;0.52;;;5.20;99.90;;;;;;7294988;32;20585;-58
2023/03/27 17:39:18;;;;;;;5.03;0.82;;;4.90;99.90;;;;;;7289046;32;20165;-57
2023/03/27 17:43:19;;;;;;;6.72;0.85;;;4.90;99.90;;;;;;7287779;32;20137;-58
2023/03/27 17:47:21;;;;;;;4.80;1.00;;;4.90;99.90;;;;;;7291825;32;20237;-57
2023/03/27 17:51:23;;;;;;;4.78;0.93;;;4.80;99.90;;;;;;7287229;32;20105;-57
2023/03/27 17:55:25;;;;;;;9.07;1.00;;;4.70;99.90;;;;;;7289767;32;20185;-58
2023/03/27 17:59:29;;;;;;;4.95;0.77;;;4.60;99.90;;;;;;7291317;32;20112;-58
2023/03/27 18:03:30;;;;;;;4.78;0.90;;;4.40;99.90;;;;;;7288475;32;20154;-57
2023/03/27 18:07:32;;;;;;;3.65;0.80;;;4.40;99.90;;;;;;7290409;32;20096;-57
2023/03/27 18:11:34;;;;;;;6.32;0.85;;;4.30;99.90;;;;;;7288610;32;20168;-57
2023/03/27 18:15:37;;;;;;;4.65;1.17;;;4.20;99.90;;;;;;7289011;32;20179;-57
2023/03/27 18:19:39;;;;;;;4.32;0.90;;;4.10;99.90;;;;;;7288595;32;20264;-57
2023/03/27 18:23:41;;;;;;;4.18;1.20;;;3.90;99.90;;;;;;7287103;32;20221;-57
2023/03/27 18:27:47;;;;;;;5.60;1.83;;;3.80;99.90;;;;;;7287022;32;20361;-57
2023/03/27 18:31:49;;;;;;;8.32;2.75;;;3.70;99.90;;;;;;7291525;32;20569;-58
2023/03/27 18:35:55;;;;;;;8.32;2.20;;;3.70;99.90;;;;;;7289028;32;20290;-57
2023/03/27 18:39:57;;;;;;;5.95;1.98;;;3.60;99.90;;;;;;7286726;32;20212;-57
2023/03/27 18:43:59;;;;;;;7.65;2.20;;;3.50;99.90;;;;;;7284000;32;20242;-57
2023/03/27 18:48:01;;;;;;;7.87;1.90;;;3.50;99.90;;;;;;7283339;32;20211;-57
2023/03/27 18:52:03;;;;;;;5.28;1.98;;;3.60;99.90;;;;;;7284514;32;20107;-57
2023/03/27 18:56:05;;;;;;;10.43;1.77;;;3.60;99.90;;;;;;7265510;32;20104;-57
2023/03/27 19:00:07;;;;;;;6.70;1.95;;;3.70;99.90;;;;;;7281495;32;20113;-57
2023/03/27 19:04:10;;;;;;;5.35;2.00;;;3.80;99.90;;;;;;7290293;32;20235;-57
2023/03/27 19:08:12;;;;;;;6.47;2.03;;;3.80;99.90;;;;;;7282994;32;20235;-57
2023/03/27 19:12:14;;;;;;;5.05;1.62;;;4.00;99.90;;;;;;7285430;32;20096;-57
2023/03/27 19:16:15;;;;;;;10.32;2.28;;;3.90;99.90;;;;;;7282878;32;20120;-57
2023/03/27 19:20:17;;;;;;;6.90;2.22;;;3.90;99.90;;;;;;7274350;32;20196;-59
2023/03/27 19:24:19;;;;;;;7.18;1.87;;;3.80;99.90;;;;;;7279364;32;20530;-55
2023/03/27 19:28:21;;;;;;;7.30;1.80;;;3.70;99.90;;;;;;7280534;32;20294;-58
2023/03/27 19:32:23;;;;;;;8.30;2.53;;;3.60;99.90;;;;;;7275876;32;20179;-56
2023/03/27 19:36:25;;;;;;;9.27;2.58;;;3.70;99.90;;;;;;7281361;32;20122;-56
2023/03/27 19:40:27;;;;;;;7.87;2.35;;;3.50;99.90;;;;;;7282528;32;20592;-55
2023/03/27 19:44:30;;;;;;;11.90;2.90;;;3.40;99.90;;;;;;7279446;32;20447;-56
2023/03/27 19:48:32;;;;;;;9.63;2.60;;;3.50;99.90;;;;;;7279061;32;20210;-57
2023/03/27 19:52:34;;;;;;;10.65;2.95;;;3.50;99.90;;;;;;7272877;32;20199;-56
2023/03/27 19:56:35;;;;;;;9.15;2.90;;;3.40;99.90;;;;;;7279084;32;20222;-56
2023/03/27 20:00:37;;;;;;;10.05;2.10;;;3.20;99.90;;;;;;7278405;32;20130;-56
2023/03/27 20:04:39;;;;;;;10.63;2.03;;;3.20;99.90;;;;;;7279335;32;20156;-56
2023/03/27 20:08:41;;;;;;;3.67;1.10;;;3.20;99.90;;;;;;7281649;32;20454;-56
2023/03/27 20:12:43;;;;;;;5.05;1.60;;;3.10;99.90;;;;;;7273586;32;20158;-56
2023/03/27 20:16:45;;;;;;;10.48;1.40;;;3.10;99.90;;;;;;7275648;32;20108;-56
2023/03/27 20:20:49;;;;;;;10.38;1.77;;;3.00;99.90;;;;;;7270810;32;20641;-56
2023/03/27 20:24:50;;;;;;;6.12;1.73;;;2.90;99.90;;;;;;7279291;32;20221;-56
2023/03/27 20:28:52;;;;;;;7.25;1.70;;;2.90;99.90;;;;;;7277390;32;20909;-55
2023/03/27 20:32:54;;;;;;;3.53;1.37;;;2.90;99.90;;;;;;7270999;32;20127;-56
2023/03/27 20:36:57;;;;;;;9.40;1.17;;;2.80;99.90;;;;;;7279583;32;20775;-56
2023/03/27 20:41:02;;;;;;;4.70;1.40;;;2.80;99.90;;;;;;7283429;32;20227;-56
2023/03/27 20:45:05;;;;;;;5.85;1.17;;;2.70;99.90;;;;;;7274787;32;20804;-57
2023/03/27 20:49:07;;;;;;;7.57;1.17;;;2.70;99.90;;;;;;7278963;32;20498;-56
2023/03/27 20:53:09;;;;;;;11.27;1.33;;;2.60;99.90;;;;;;7277328;32;20092;-56
2023/03/27 20:57:11;;;;;;;7.45;2.37;;;2.50;99.90;;;;;;7275981;32;20616;-56
2023/03/27 21:01:13;;;;;;;8.88;1.70;;;2.40;99.90;;;;;;7275063;32;20130;-56
2023/03/27 21:05:15;;;;;;;8.32;1.60;;;2.30;99.90;;;;;;7276567;32;20499;-56
2023/03/27 21:09:17;;;;;;;8.35;1.62;;;2.20;99.90;;;;;;7289150;32;20123;-56
2023/03/27 21:13:19;;;;;;;12.88;1.85;;;2.10;99.90;;;;;;7276257;32;20253;-56
2023/03/27 21:17:20;;;;;;;6.22;1.73;;;2.00;99.90;;;;;;7287667;32;20151;-55
2023/03/27 21:21:22;;;;;;;5.70;1.90;;;2.00;99.90;;;;;;7288699;32;20350;-55
2023/03/27 21:25:24;;;;;;;4.97;1.60;;;1.90;99.90;;;;;;7283573;32;20468;-56
2023/03/27 21:29:26;;;;;;;10.52;1.90;;;1.80;99.90;;;;;;7279873;32;20430;-56
2023/03/27 21:33:27;;;;;;;6.47;1.60;;;1.70;99.90;;;;;;7275063;32;20200;-55
2023/03/27 21:37:29;;;;;;;8.63;1.65;;;1.60;99.90;;;;;;7283195;32;20104;-55